Time;durP1;ratioP1;P1;durP2;ratioP2;P2;SDS_P1;SDS_P2;PMS_P1;PMS_P2;Temp;Humidity;BMP_temperature;BMP_pressure;BME280_temperature;BME280_humidity;BME280_pressure;Samples;Min_cycle;Max_cycle;Signal;HPM_P1;HPM_P2
2022/08/05 00:00:29;;;;;;;;;;;;;;;27.72;43.86;99284.06;1088116;54;19934;-81
2022/08/05 00:01:31;;;;;;;;;;;;;;;27.69;44.97;99290.09;1090620;39;20350;-82
2022/08/05 00:02:34;;;;;;;;;;;;;;;27.63;45.23;99288.47;1088122;54;20006;-81
2022/08/05 00:03:35;;;;;;;;;;;;;;;27.55;45.72;99285.19;1088229;54;19942;-82
2022/08/05 00:04:39;;;;;;;;;;;;;;;27.51;45.38;99288.75;1088090;54;20463;-81
2022/08/05 00:05:42;;;;;;;;;;;;;;;27.46;45.44;99284.09;1088178;54;19998;-80
2022/08/05 00:06:46;;;;;;;;;;;;;;;27.43;45.38;99289.28;1088072;54;20512;-82
2022/08/05 00:07:47;;;;;;;;;;;;;;;27.47;44.86;99291.25;1088038;54;20053;-82
2022/08/05 00:08:51;;;;;;;;;;;;;;;27.51;44.86;99286.84;1089032;39;20333;-81
2022/08/05 00:09:54;;;;;;;;;;;;;;;27.53;44.65;99287.38;1087478;54;20056;-81
2022/08/05 00:10:58;;;;;;;;;;;;;;;27.53;45.14;99281.91;1087510;54;19954;-81
2022/08/05 00:12:02;;;;;;;;;;;;;;;27.52;44.35;99296.72;1087785;54;19943;-81
2022/08/05 00:13:03;;;;;;;;;;;;;;;27.39;44.09;99292.56;1087991;54;19974;-81
2022/08/05 00:14:07;;;;;;;;;;;;;;;27.37;43.48;99292.03;1089327;46;20069;-81
2022/08/05 00:15:09;;;;;;;;;;;;;;;27.37;42.99;99293.97;1087902;54;19951;-81
2022/08/05 00:16:13;;;;;;;;;;;;;;;27.38;43.55;99295.59;1088208;54;19950;-80
2022/08/05 00:17:15;;;;;;;;;;;;;;;27.40;42.98;99301.63;1088130;54;19927;-83
2022/08/05 00:18:18;;;;;;;;;;;;;;;27.43;43.19;99294.78;1088279;54;19942;-82
2022/08/05 00:19:20;;;;;;;;;;;;;;;27.45;42.91;99287.94;1088080;54;20515;-83
2022/08/05 00:20:24;;;;;;;;;;;;;;;27.48;42.57;99292.06;1088017;54;20468;-82
2022/08/05 00:21:25;;;;;;;;;;;;;;;27.51;42.33;99292.31;1087832;54;19934;-82
2022/08/05 00:22:29;;;;;;;;;;;;;;;27.52;42.50;99304.94;1087642;54;19950;-83
2022/08/05 00:23:30;;;;;;;;;;;;;;;27.33;42.54;99314.78;1088001;54;19942;-82
2022/08/05 00:24:34;;;;;;;;;;;;;;;27.34;42.89;99319.19;1088078;54;19942;-82
2022/08/05 00:25:38;;;;;;;;;;;;;;;27.40;42.81;99316.19;1088077;54;19950;-82
2022/08/05 00:26:41;;;;;;;;;;;;;;;27.42;42.75;99318.63;1088190;54;19958;-82
2022/08/05 00:27:43;;;;;;;;;;;;;;;27.36;43.06;99303.28;1087751;54;19966;-82
2022/08/05 00:28:46;;;;;;;;;;;;;;;27.35;43.00;99312.59;1086991;54;19962;-82
2022/08/05 00:29:48;;;;;;;;;;;;;;;27.16;43.22;99312.34;1087814;39;20535;-83
2022/08/05 00:30:51;;;;;;;;;;;;;;;27.07;43.55;99317.53;1086953;54;19946;-82
2022/08/05 00:31:55;;;;;;;;;;;;;;;27.03;43.84;99316.41;1086832;54;19950;-82
2022/08/05 00:32:56;;;;;;;;;;;;;;;27.09;43.82;99307.13;1085957;54;19970;-80
2022/08/05 00:34:00;;;;;;;;;;;;;;;27.18;43.63;99308.22;1085457;54;19946;-81
2022/08/05 00:35:01;;;;;;;;;;;;;;;27.16;43.95;99315.09;1085583;54;19946;-81
2022/08/05 00:36:05;;;;;;;;;;;;;;;27.15;44.05;99327.16;1085471;54;19951;-81
2022/08/05 00:37:07;;;;;;;;;;;;;;;27.03;44.42;99343.84;1085055;54;19946;-81
2022/08/05 00:38:10;;;;;;;;;;;;;;;27.02;44.53;99340.28;1084433;54;19951;-81
2022/08/05 00:39:12;;;;;;;;;;;;;;;26.89;45.14;99354.50;1084698;54;19946;-81
2022/08/05 00:40:15;;;;;;;;;;;;;;;26.72;44.96;99352.78;1084813;54;19946;-81
2022/08/05 00:41:32;;;;;;;;;;;;;;;26.60;45.17;99355.75;1086548;54;19973;-80
2022/08/05 00:42:34;;;;;;;;;;;;;;;26.41;45.22;99354.56;1086927;54;19943;-80
2022/08/05 00:43:38;;;;;;;;;;;;;;;26.28;45.44;99361.34;1086416;54;19946;-81
2022/08/05 00:44:39;;;;;;;;;;;;;;;26.31;45.29;99358.91;1087500;39;20431;-81
2022/08/05 00:45:43;;;;;;;;;;;;;;;26.20;45.42;99364.59;1087993;54;20022;-79
2022/08/05 00:46:44;;;;;;;;;;;;;;;26.15;45.34;99368.13;1087974;54;19949;-81
2022/08/05 00:47:48;;;;;;;;;;;;;;;26.15;45.45;99362.66;1088228;54;19942;-79
2022/08/05 00:48:49;;;;;;;;;;;;;;;26.12;45.41;99366.72;1088377;54;19957;-79
2022/08/05 00:49:53;;;;;;;;;;;;;;;26.20;45.43;99364.59;1088374;54;19943;-79
2022/08/05 00:50:54;;;;;;;;;;;;;;;26.15;45.18;99365.41;1088060;54;19957;-82
2022/08/05 00:51:58;;;;;;;;;;;;;;;26.01;45.69;99367.75;1088020;54;19954;-82
2022/08/05 00:52:59;;;;;;;;;;;;;;;25.99;45.85;99365.25;1088016;54;20468;-82
2022/08/05 00:54:03;;;;;;;;;;;;;;;26.07;45.79;99360.38;1087826;54;19935;-82
2022/08/05 00:55:04;;;;;;;;;;;;;;;26.14;45.51;99361.00;1087559;54;19989;-83
2022/08/05 00:56:09;;;;;;;;;;;;;;;26.19;45.15;99362.94;1087556;54;19990;-84
2022/08/05 00:57:13;;;;;;;;;;;;;;;26.12;45.21;99361.25;1086776;54;20050;-82
2022/08/05 00:58:18;;;;;;;;;;;;;;;26.07;45.25;99372.16;1087375;54;20002;-82
2022/08/05 00:59:19;;;;;;;;;;;;;;;25.98;45.33;99363.59;1087638;54;19946;-82
2022/08/05 01:00:23;;;;;;;;;;;;;;;26.03;45.00;99370.22;1087211;54;19953;-82
2022/08/05 01:01:24;;;;;;;;;;;;;;;25.93;44.85;99366.31;1087746;54;19946;-82
2022/08/05 01:02:28;;;;;;;;;;;;;;;25.93;45.24;99365.50;1087536;54;19938;-83
2022/08/05 01:03:29;;;;;;;;;;;;;;;25.92;45.04;99361.13;1087210;54;20488;-83
2022/08/05 01:04:33;;;;;;;;;;;;;;;25.96;44.95;99368.53;1087745;54;19949;-82
2022/08/05 01:05:35;;;;;;;;;;;;;;;26.09;44.53;99366.44;1088209;46;19939;-82
2022/08/05 01:06:48;;;;;;;;;;;;;;;26.07;44.35;99374.91;1088384;54;19986;-83
2022/08/05 01:07:50;;;;;;;;;;;;;;;25.96;44.48;99382.22;1087942;54;19957;-81
2022/08/05 01:08:54;;;;;;;;;;;;;;;25.93;44.52;99380.00;1087442;54;19951;-82
2022/08/05 01:09:55;;;;;;;;;;;;;;;25.89;44.39;99381.59;1088266;46;19951;-82
2022/08/05 01:11:01;;;;;;;;;;;;;;;25.89;44.82;99370.66;1087851;54;19995;-82
2022/08/05 01:12:05;;;;;;;;;;;;;;;25.99;44.17;99375.41;1087880;54;19998;-81
2022/08/05 01:13:15;;;;;;;;;;;;;;;25.98;44.03;99365.53;1089877;39;20471;-81
2022/08/05 01:14:19;;;;;;;;;;;;;;;25.97;44.01;99364.72;1087586;54;20532;-81
2022/08/05 01:15:29;;;;;;;;;;;;;;;25.98;43.95;99371.00;1087339;54;19923;-82
2022/08/05 01:16:33;;;;;;;;;;;;;;;26.00;43.58;99377.84;1087161;54;19958;-81
2022/08/05 01:17:39;;;;;;;;;;;;;;;26.03;43.72;99372.94;1087040;54;19953;-82
2022/08/05 01:18:42;;;;;;;;;;;;;;;26.11;43.40;99383.44;1086839;54;20464;-81
2022/08/05 01:19:49;;;;;;;;;;;;;;;26.08;43.37;99378.44;1087249;54;19954;-81
2022/08/05 01:20:58;;;;;;;;;;;;;;;26.15;43.50;99379.91;1086509;54;20485;-81
2022/08/05 01:22:16;;;;;;;;;;;;;;;26.24;43.22;99384.88;1086761;54;19957;-81
2022/08/05 01:23:26;;;;;;;;;;;;;;;26.29;42.73;99390.41;1086938;54;19978;-81
2022/08/05 01:24:46;;;;;;;;;;;;;;;26.34;42.61;99386.88;1087465;54;19954;-82
2022/08/05 01:25:55;;;;;;;;;;;;;;;26.36;42.54;99385.50;1086554;54;19950;-81
2022/08/05 01:27:04;;;;;;;;;;;;;;;26.41;42.60;99385.53;1086257;46;20074;-81
2022/08/05 01:28:16;;;;;;;;;;;;;;;26.36;42.47;99390.13;1086267;54;19973;-79
2022/08/05 01:29:22;;;;;;;;;;;;;;;26.42;42.61;99391.84;1086260;54;19938;-80
2022/08/05 01:30:25;;;;;;;;;;;;;;;26.51;42.00;99392.13;1086569;54;20300;-80
2022/08/05 01:31:31;;;;;;;;;;;;;;;26.55;42.15;99390.53;1086362;54;20453;-80
2022/08/05 01:32:33;;;;;;;;;;;;;;;26.55;42.21;99396.81;1088031;39;20381;-80
2022/08/05 01:33:41;;;;;;;;;;;;;;;26.57;42.18;99397.38;1086250;54;19942;-81
2022/08/05 01:34:45;;;;;;;;;;;;;;;26.56;42.33;99409.44;1086504;39;20472;-81
2022/08/05 01:35:51;;;;;;;;;;;;;;;26.58;42.25;99406.44;1086299;54;19969;-80
2022/08/05 01:36:54;;;;;;;;;;;;;;;26.61;42.10;99405.91;1086650;54;19974;-83
2022/08/05 01:37:59;;;;;;;;;;;;;;;26.56;42.47;99409.44;1086872;54;19946;-81
2022/08/05 01:39:01;;;;;;;;;;;;;;;26.62;42.28;99405.66;1086622;54;19953;-82
2022/08/05 01:40:06;;;;;;;;;;;;;;;26.62;42.74;99402.06;1086091;54;20651;-81
2022/08/05 01:41:08;;;;;;;;;;;;;;;26.65;42.82;99401.53;1088581;39;20431;-84
2022/08/05 01:42:14;;;;;;;;;;;;;;;26.73;42.58;99400.22;1088173;54;19943;-84
2022/08/05 01:43:19;;;;;;;;;;;;;;;26.75;42.37;99403.50;1088407;54;19950;-83
2022/08/05 01:44:24;;;;;;;;;;;;;;;26.73;42.47;99401.03;1095469;39;20411;-84
2022/08/05 01:45:26;;;;;;;;;;;;;;;26.75;42.80;99408.97;1088178;54;20442;-82
2022/08/05 01:46:32;;;;;;;;;;;;;;;26.71;42.69;99408.69;1088494;54;19971;-86
2022/08/05 01:47:34;;;;;;;;;;;;;;;26.75;43.10;99408.97;1088470;54;19958;-86
2022/08/05 01:48:40;;;;;;;;;;;;;;;26.78;42.64;99419.44;1088416;54;19981;-84
2022/08/05 01:49:44;;;;;;;;;;;;;;;26.81;42.74;99415.34;1088608;54;19927;-87
2022/08/05 01:50:48;;;;;;;;;;;;;;;26.82;42.74;99404.13;1100618;46;19939;-87
2022/08/05 01:51:50;;;;;;;;;;;;;;;26.83;42.95;99404.94;1088569;54;19939;-84
2022/08/05 01:52:55;;;;;;;;;;;;;;;26.85;42.75;99411.78;1092633;46;19935;-86
2022/08/05 01:53:58;;;;;;;;;;;;;;;26.86;42.80;99410.69;1088592;54;19927;-86
2022/08/05 01:55:03;;;;;;;;;;;;;;;26.87;43.02;99417.84;1088612;54;19994;-85
2022/08/05 01:56:06;;;;;;;;;;;;;;;26.87;43.01;99419.75;1094611;39;20159;-86
2022/08/05 01:57:11;;;;;;;;;;;;;;;26.90;42.94;99416.47;1092525;46;19938;-86
2022/08/05 01:58:12;;;;;;;;;;;;;;;26.89;42.64;99412.06;1088211;54;19965;-85
2022/08/05 01:59:21;;;;;;;;;;;;;;;26.90;43.08;99420.03;1088577;54;19989;-86
2022/08/05 02:00:23;;;;;;;;;;;;;;;26.91;42.98;99418.13;1088494;54;19926;-86
2022/08/05 02:01:27;;;;;;;;;;;;;;;26.88;43.02;99413.16;1088481;54;19942;-87
2022/08/05 02:02:30;;;;;;;;;;;;;;;26.85;43.38;99400.81;1088470;54;19946;-85
2022/08/05 02:03:35;;;;;;;;;;;;;;;26.80;43.56;99405.47;1088497;54;19953;-87
2022/08/05 02:04:37;;;;;;;;;;;;;;;26.79;43.35;99404.66;1088443;54;19950;-88
2022/08/05 02:05:42;;;;;;;;;;;;;;;26.78;43.41;99403.00;1088460;54;19943;-86
2022/08/05 02:06:43;;;;;;;;;;;;;;;26.80;43.34;99408.19;1088415;54;19927;-84
2022/08/05 02:07:47;;;;;;;;;;;;;;;26.81;42.99;99407.09;1088442;54;19923;-85
2022/08/05 02:08:48;;;;;;;;;;;;;;;26.79;43.28;99415.59;1088444;54;19927;-87
2022/08/05 02:09:52;;;;;;;;;;;;;;;26.74;43.59;99413.63;1109239;31;20634;-84
2022/08/05 02:10:58;;;;;;;;;;;;;;;26.77;43.13;99415.03;1088293;54;19943;-84
2022/08/05 02:12:04;;;;;;;;;;;;;;;26.81;43.38;99415.34;1088940;46;19994;-83
2022/08/05 02:13:10;;;;;;;;;;;;;;;26.81;43.18;99418.91;1087190;54;19977;-82
2022/08/05 02:14:16;;;;;;;;;;;;;;;26.76;43.65;99405.13;1086544;54;19991;-81
2022/08/05 02:15:23;;;;;;;;;;;;;;;26.78;43.29;99406.53;1086135;54;19951;-83
2022/08/05 02:16:28;;;;;;;;;;;;;;;26.76;43.83;99399.66;1087339;54;19947;-82
2022/08/05 02:17:32;;;;;;;;;;;;;;;26.69;44.05;99401.81;1087326;54;19958;-81
2022/08/05 02:18:39;;;;;;;;;;;;;;;26.69;43.69;99396.34;1087465;54;19945;-80
2022/08/05 02:19:42;;;;;;;;;;;;;;;26.63;43.83;99395.50;1088079;47;20440;-82
2022/08/05 02:20:49;;;;;;;;;;;;;;;26.57;44.55;99391.09;1088298;39;20329;-81
2022/08/05 02:21:53;;;;;;;;;;;;;;;26.54;44.34;99386.13;1087844;54;19938;-82
2022/08/05 02:22:59;;;;;;;;;;;;;;;26.57;43.76;99388.34;1087443;54;19943;-84
2022/08/05 02:24:03;;;;;;;;;;;;;;;26.54;44.07;99386.97;1088189;39;20318;-81
2022/08/05 02:25:10;;;;;;;;;;;;;;;26.57;43.91;99380.13;1087250;54;19947;-83
2022/08/05 02:26:12;;;;;;;;;;;;;;;26.59;44.11;99389.72;1087486;54;19966;-80
2022/08/05 02:27:16;;;;;;;;;;;;;;;26.59;44.04;99391.66;1087550;54;19939;-84
2022/08/05 02:28:21;;;;;;;;;;;;;;;26.59;43.73;99392.47;1087424;54;19946;-82
2022/08/05 02:29:25;;;;;;;;;;;;;;;26.59;44.13;99392.47;1087453;54;20035;-81
2022/08/05 02:30:31;;;;;;;;;;;;;;;26.57;43.56;99391.91;1087517;54;20002;-85
2022/08/05 02:31:37;;;;;;;;;;;;;;;26.56;43.74;99390.25;1085113;54;19950;-80
2022/08/05 02:32:39;;;;;;;;;;;;;;;26.53;44.05;99384.47;1084710;54;19962;-82
2022/08/05 02:33:45;;;;;;;;;;;;;;;26.51;43.83;99390.25;1084703;54;19958;-80
2022/08/05 02:34:47;;;;;;;;;;;;;;;26.50;44.07;99380.38;1084808;54;19977;-80
2022/08/05 02:35:52;;;;;;;;;;;;;;;26.48;44.09;99377.06;1086034;54;19939;-80
2022/08/05 02:36:57;;;;;;;;;;;;;;;26.49;44.04;99386.94;1088362;54;19926;-81
2022/08/05 02:37:59;;;;;;;;;;;;;;;26.39;44.08;99390.47;1088302;54;19927;-81
2022/08/05 02:39:04;;;;;;;;;;;;;;;26.35;43.91;99394.00;1088167;54;19923;-80
2022/08/05 02:40:07;;;;;;;;;;;;;;;26.34;44.05;99403.31;1088103;54;19923;-81
2022/08/05 02:41:12;;;;;;;;;;;;;;;26.35;44.30;99410.44;1087883;54;19946;-82
2022/08/05 02:42:13;;;;;;;;;;;;;;;26.40;44.01;99411.25;1087714;54;19953;-81
2022/08/05 02:43:18;;;;;;;;;;;;;;;26.29;44.46;99404.09;1087734;54;20037;-81
2022/08/05 02:44:20;;;;;;;;;;;;;;;26.23;44.37;99405.97;1090311;47;20060;-82
2022/08/05 02:45:26;;;;;;;;;;;;;;;26.22;44.87;99407.06;1089212;39;20392;-82
2022/08/05 02:46:30;;;;;;;;;;;;;;;26.30;44.40;99401.09;1086343;54;19952;-79
2022/08/05 02:47:35;;;;;;;;;;;;;;;26.38;44.33;99399.78;1087327;54;19977;-80
2022/08/05 02:48:36;;;;;;;;;;;;;;;26.37;44.11;99391.78;1086995;54;19951;-81
2022/08/05 02:49:43;;;;;;;;;;;;;;;26.37;44.16;99391.78;1086817;54;19962;-79
2022/08/05 02:50:46;;;;;;;;;;;;;;;26.41;44.05;99387.44;1086605;39;20443;-80
2022/08/05 02:51:50;;;;;;;;;;;;;;;26.44;43.84;99403.38;1086452;54;19951;-80
2022/08/05 02:52:52;;;;;;;;;;;;;;;26.45;43.95;99397.59;1086819;54;19973;-81
2022/08/05 02:53:56;;;;;;;;;;;;;;;26.29;44.50;99396.69;1086709;39;20411;-79
2022/08/05 02:54:59;;;;;;;;;;;;;;;26.16;45.17;99413.59;1086057;54;19950;-81
2022/08/05 02:56:03;;;;;;;;;;;;;;;26.24;45.05;99412.28;1084841;54;19989;-81
2022/08/05 02:57:07;;;;;;;;;;;;;;;26.25;44.94;99417.50;1084980;54;19947;-81
2022/08/05 02:58:11;;;;;;;;;;;;;;;26.20;45.50;99422.13;1084968;54;19947;-81
2022/08/05 02:59:13;;;;;;;;;;;;;;;26.05;45.93;99418.13;1085218;54;19953;-81
2022/08/05 03:00:18;;;;;;;;;;;;;;;26.06;46.09;99418.97;1084614;54;19946;-81
2022/08/05 03:01:22;;;;;;;;;;;;;;;25.89;46.89;99427.31;1084880;54;20006;-82
2022/08/05 03:02:31;;;;;;;;;;;;;;;25.78;47.19;99426.44;1085334;54;19950;-81
2022/08/05 03:03:34;;;;;;;;;;;;;;;25.72;47.61;99438.41;1082304;54;19951;-76
2022/08/05 03:04:37;;;;;;;;;;;;;;;25.61;48.20;99441.03;1082118;54;19947;-77
2022/08/05 03:05:39;;;;;;;;;;;;;;;25.45;48.83;99440.09;1081736;54;19958;-77
2022/08/05 03:06:43;;;;;;;;;;;;;;;25.38;49.01;99437.53;1082118;54;19958;-77
2022/08/05 03:07:45;;;;;;;;;;;;;;;25.36;49.39;99439.69;1082337;54;19947;-77
2022/08/05 03:08:48;;;;;;;;;;;;;;;25.38;49.11;99447.63;1082652;54;20433;-77
2022/08/05 03:09:50;;;;;;;;;;;;;;;25.41;49.04;99440.88;1082982;54;19973;-76
2022/08/05 03:10:53;;;;;;;;;;;;;;;25.40;49.24;99445.50;1083075;54;19977;-77
2022/08/05 03:11:55;;;;;;;;;;;;;;;25.37;48.96;99459.63;1083809;31;20425;-76
2022/08/05 03:12:58;;;;;;;;;;;;;;;25.40;48.91;99455.63;1082902;54;19953;-77
2022/08/05 03:13:59;;;;;;;;;;;;;;;25.37;49.32;99462.38;1083128;54;19970;-77
2022/08/05 03:15:03;;;;;;;;;;;;;;;25.33;49.30;99462.06;1082946;54;19969;-77
2022/08/05 03:16:05;;;;;;;;;;;;;;;25.37;49.37;99459.63;1082999;54;19977;-76
2022/08/05 03:17:08;;;;;;;;;;;;;;;25.34;49.70;99457.44;1083101;54;20033;-77
2022/08/05 03:18:12;;;;;;;;;;;;;;;25.30;49.71;99461.75;1083666;39;20612;-76
2022/08/05 03:19:16;;;;;;;;;;;;;;;25.30;49.62;99465.34;1083099;54;19970;-76
2022/08/05 03:20:17;;;;;;;;;;;;;;;25.32;49.55;99465.88;1083935;39;20341;-77
2022/08/05 03:21:21;;;;;;;;;;;;;;;25.35;49.82;99462.66;1082787;54;20042;-77
2022/08/05 03:22:22;;;;;;;;;;;;;;;25.37;49.39;99465.13;1083551;39;20361;-75
2022/08/05 03:23:26;;;;;;;;;;;;;;;25.41;49.76;99462.75;1082936;54;19950;-75
2022/08/05 03:24:28;;;;;;;;;;;;;;;25.49;48.93;99456.81;1082535;54;19969;-75
2022/08/05 03:25:32;;;;;;;;;;;;;;;25.57;48.59;99450.88;1082508;54;20065;-75
2022/08/05 03:26:33;;;;;;;;;;;;;;;25.65;48.28;99453.13;1082730;54;19977;-75
2022/08/05 03:27:37;;;;;;;;;;;;;;;25.73;48.24;99456.47;1083139;54;19974;-76
2022/08/05 03:28:38;;;;;;;;;;;;;;;25.75;48.23;99448.84;1083059;54;19962;-75
2022/08/05 03:29:41;;;;;;;;;;;;;;;25.75;48.10;99441.44;1083029;54;20414;-75
2022/08/05 03:30:43;;;;;;;;;;;;;;;25.74;48.57;99439.78;1083075;54;19977;-75
2022/08/05 03:31:47;;;;;;;;;;;;;;;25.77;48.15;99449.41;1083069;54;19950;-75
2022/08/05 03:32:49;;;;;;;;;;;;;;;25.82;47.99;99449.44;1083227;54;19946;-75
2022/08/05 03:33:55;;;;;;;;;;;;;;;25.85;48.06;99447.00;1083176;54;19957;-74
2022/08/05 03:34:56;;;;;;;;;;;;;;;25.88;47.97;99453.88;1082879;54;20476;-75
2022/08/05 03:36:01;;;;;;;;;;;;;;;25.89;48.35;99451.97;1082682;54;19961;-75
2022/08/05 03:37:06;;;;;;;;;;;;;;;25.90;47.82;99454.44;1083098;54;19950;-75
2022/08/05 03:38:07;;;;;;;;;;;;;;;25.91;48.18;99445.13;1083000;54;19946;-74
2022/08/05 03:39:11;;;;;;;;;;;;;;;25.92;48.05;99446.78;1083245;54;19946;-74
2022/08/05 03:40:12;;;;;;;;;;;;;;;25.82;48.32;99447.53;1082957;54;20429;-74
2022/08/05 03:41:17;;;;;;;;;;;;;;;25.85;48.28;99451.66;1083035;54;19939;-74
2022/08/05 03:42:18;;;;;;;;;;;;;;;25.81;48.13;99445.03;1082254;54;20469;-76
2022/08/05 03:43:23;;;;;;;;;;;;;;;25.83;48.20;99443.72;1082665;54;19953;-75
2022/08/05 03:44:24;;;;;;;;;;;;;;;25.84;48.23;99450.81;1082870;54;19947;-75
2022/08/05 03:45:28;;;;;;;;;;;;;;;25.87;48.22;99451.41;1083158;54;19938;-75
2022/08/05 03:46:31;;;;;;;;;;;;;;;25.88;48.06;99444.84;1082988;54;19970;-75
2022/08/05 03:47:35;;;;;;;;;;;;;;;25.90;47.95;99451.69;1083073;54;19946;-74
2022/08/05 03:48:36;;;;;;;;;;;;;;;25.95;47.88;99443.53;1083168;54;19947;-74
2022/08/05 03:49:42;;;;;;;;;;;;;;;25.98;47.78;99439.44;1083171;54;19946;-76
2022/08/05 03:50:49;;;;;;;;;;;;;;;25.99;47.76;99441.91;1083268;54;19954;-75
2022/08/05 03:51:57;;;;;;;;;;;;;;;26.01;47.88;99434.28;1083558;39;20551;-75
2022/08/05 03:53:06;;;;;;;;;;;;;;;26.01;47.79;99439.75;1083018;54;19939;-75
2022/08/05 03:54:14;;;;;;;;;;;;;;;25.94;47.88;99433.69;1083255;54;19939;-75
2022/08/05 03:55:18;;;;;;;;;;;;;;;25.97;47.78;99427.69;1083027;54;20468;-75
2022/08/05 03:56:26;;;;;;;;;;;;;;;25.98;47.84;99426.56;1083050;54;19954;-77
2022/08/05 03:57:31;;;;;;;;;;;;;;;25.92;47.96;99430.38;1083110;54;20539;-76
2022/08/05 03:58:35;;;;;;;;;;;;;;;25.96;47.59;99428.78;1083631;46;19962;-75
2022/08/05 03:59:40;;;;;;;;;;;;;;;25.97;47.71;99422.22;1082817;54;19947;-75
2022/08/05 04:00:46;;;;;;;;;;;;;;;25.96;47.63;99428.78;1082413;54;20089;-75
2022/08/05 04:01:48;;;;;;;;;;;;;;;25.95;47.37;99432.59;1082578;54;19946;-75
2022/08/05 04:02:53;;;;;;;;;;;;;;;25.95;47.51;99429.84;1083211;54;19973;-76
2022/08/05 04:03:55;;;;;;;;;;;;;;;25.98;47.42;99431.22;1083016;54;19942;-76
2022/08/05 04:05:01;;;;;;;;;;;;;;;25.95;47.35;99437.22;1083046;54;19991;-76
2022/08/05 04:06:03;;;;;;;;;;;;;;;25.92;47.41;99430.38;1083003;54;19986;-75
2022/08/05 04:07:07;;;;;;;;;;;;;;;25.92;47.65;99433.09;1083136;54;20010;-75
2022/08/05 04:08:10;;;;;;;;;;;;;;;25.91;47.57;99430.63;1083175;54;19942;-76
2022/08/05 04:09:13;;;;;;;;;;;;;;;25.88;47.76;99433.88;1083065;54;19938;-75
2022/08/05 04:10:15;;;;;;;;;;;;;;;25.86;47.74;99431.41;1082975;54;20440;-75
2022/08/05 04:11:19;;;;;;;;;;;;;;;25.89;47.80;99436.34;1083071;54;19938;-75
2022/08/05 04:12:21;;;;;;;;;;;;;;;25.92;47.68;99435.84;1082922;54;19973;-75
2022/08/05 04:13:24;;;;;;;;;;;;;;;25.96;47.28;99441.63;1083280;54;19947;-75
2022/08/05 04:14:28;;;;;;;;;;;;;;;25.97;47.55;99448.75;1083831;39;20371;-75
2022/08/05 04:15:29;;;;;;;;;;;;;;;25.97;47.45;99455.06;1083058;54;19947;-75
2022/08/05 04:16:34;;;;;;;;;;;;;;;25.89;48.19;99452.78;1083180;54;19938;-75
2022/08/05 04:17:35;;;;;;;;;;;;;;;25.75;48.54;99474.28;1082419;54;19946;-75
2022/08/05 04:18:39;;;;;;;;;;;;;;;25.80;48.21;99488.03;1082525;54;19946;-75
2022/08/05 04:19:41;;;;;;;;;;;;;;;25.74;48.55;99500.00;1082393;54;19947;-76
2022/08/05 04:20:54;;;;;;;;;;;;;;;25.69;49.34;99508.97;1083079;54;19947;-76
2022/08/05 04:21:55;;;;;;;;;;;;;;;25.64;49.48;99516.34;1082947;54;19939;-75
2022/08/05 04:22:58;;;;;;;;;;;;;;;25.57;50.26;99527.47;1083505;39;20499;-75
2022/08/05 04:23:59;;;;;;;;;;;;;;;25.47;50.41;99544.59;1083199;39;20404;-74
2022/08/05 04:25:03;;;;;;;;;;;;;;;25.45;50.53;99556.88;1082935;54;19958;-75
2022/08/05 04:26:05;;;;;;;;;;;;;;;25.36;50.80;99562.78;1083151;54;19951;-75
2022/08/05 04:27:08;;;;;;;;;;;;;;;25.40;50.75;99570.50;1083724;54;20472;-75
2022/08/05 04:28:09;;;;;;;;;;;;;;;25.38;50.53;99570.72;1083125;54;19938;-75
2022/08/05 04:29:13;;;;;;;;;;;;;;;25.41;50.50;99572.16;1082853;54;19963;-80
2022/08/05 04:30:15;;;;;;;;;;;;;;;25.26;50.92;99576.31;1082723;54;19954;-76
2022/08/05 04:31:18;;;;;;;;;;;;;;;25.29;50.67;99570.34;1083043;54;19946;-80
2022/08/05 04:32:19;;;;;;;;;;;;;;;25.36;50.45;99567.44;1083513;54;19938;-76
2022/08/05 04:33:23;;;;;;;;;;;;;;;25.40;50.25;99573.25;1083679;39;20067;-76
2022/08/05 04:34:36;;;;;;;;;;;;;;;25.47;50.33;99571.13;1085077;54;19946;-80
2022/08/05 04:37:21;;;;;;;;;;;;;;;25.37;50.59;99580.84;1083259;54;20047;-78
2022/08/05 04:50:44;;;;;;;;;;;;;;;25.07;52.10;99606.69;1084202;54;19938;-80
2022/08/05 04:54:35;;;;;;;;;;;;;;;25.11;52.19;99617.94;1082861;54;19955;-79
2022/08/05 05:09:03;;;;;;;;;;;;;;;24.94;53.50;99661.72;1084876;54;19926;-80
2022/08/05 05:10:16;;;;;;;;;;;;;;;24.98;53.46;99660.16;1084429;54;20525;-81
2022/08/05 05:11:42;;;;;;;;;;;;;;;25.01;53.39;99667.84;1083887;54;19949;-81
2022/08/05 05:13:07;;;;;;;;;;;;;;;25.15;53.01;99668.34;1082365;54;19946;-79
2022/08/05 05:14:10;;;;;;;;;;;;;;;25.11;53.36;99685.50;1081995;54;20045;-79
2022/08/05 05:15:19;;;;;;;;;;;;;;;24.99;53.53;99691.88;1082060;54;19947;-78
2022/08/05 05:16:31;;;;;;;;;;;;;;;25.10;53.30;99708.44;1082887;54;20566;-78
2022/08/05 05:17:42;;;;;;;;;;;;;;;25.08;53.72;99711.41;1082581;54;19964;-78
2022/08/05 05:19:07;;;;;;;;;;;;;;;25.22;52.81;99711.94;1082733;54;19946;-78
2022/08/05 05:20:36;;;;;;;;;;;;;;;25.29;52.77;99709.00;1083301;39;20661;-78
2022/08/05 05:22:39;;;;;;;;;;;;;;;25.22;53.30;99711.94;1083005;47;19946;-79
2022/08/05 05:23:40;;;;;;;;;;;;;;;25.19;53.34;99720.63;1082838;54;19970;-78
2022/08/05 05:24:47;;;;;;;;;;;;;;;25.25;53.43;99714.13;1083031;54;19946;-78
2022/08/05 05:25:48;;;;;;;;;;;;;;;25.34;53.11;99718.09;1083343;54;20469;-79
2022/08/05 05:26:52;;;;;;;;;;;;;;;25.29;53.26;99715.31;1083498;54;19977;-79
2022/08/05 05:27:55;;;;;;;;;;;;;;;25.30;52.95;99714.22;1083498;54;20461;-78
2022/08/05 05:28:59;;;;;;;;;;;;;;;25.36;52.90;99717.88;1083362;54;19994;-78
2022/08/05 05:30:00;;;;;;;;;;;;;;;25.35;52.64;99727.97;1084509;54;19977;-78
2022/08/05 05:31:04;;;;;;;;;;;;;;;25.38;52.52;99723.91;1083343;47;19969;-79
2022/08/05 05:32:06;;;;;;;;;;;;;;;25.43;52.35;99734.13;1083190;39;20439;-79
2022/08/05 05:33:10;;;;;;;;;;;;;;;25.46;51.90;99734.44;1082902;54;19969;-79
2022/08/05 05:34:12;;;;;;;;;;;;;;;25.48;51.55;99732.28;1083213;54;19954;-78
2022/08/05 05:35:17;;;;;;;;;;;;;;;25.52;51.41;99728.00;1083557;39;20416;-79
2022/08/05 05:36:18;;;;;;;;;;;;;;;25.60;51.40;99729.44;1083844;54;19950;-78
2022/08/05 05:37:32;;;;;;;;;;;;;;;25.64;50.96;99722.41;1085549;47;19965;-80
2022/08/05 05:38:37;;;;;;;;;;;;;;;25.71;50.59;99730.44;1085162;54;19939;-80
2022/08/05 05:39:38;;;;;;;;;;;;;;;25.85;50.08;99720.75;1083495;54;20086;-79
2022/08/05 05:40:46;;;;;;;;;;;;;;;25.90;49.80;99733.69;1083517;54;19950;-79
2022/08/05 05:41:47;;;;;;;;;;;;;;;25.99;50.08;99726.66;1083440;54;19950;-80
2022/08/05 05:42:52;;;;;;;;;;;;;;;26.06;49.76;99731.16;1083381;54;19946;-78
2022/08/05 05:43:55;;;;;;;;;;;;;;;26.12;49.58;99728.22;1083257;54;19938;-78
2022/08/05 05:45:00;;;;;;;;;;;;;;;26.16;49.50;99720.34;1083045;54;19950;-79
2022/08/05 05:46:01;;;;;;;;;;;;;;;26.17;49.23;99724.72;1083088;54;19947;-79
2022/08/05 05:47:06;;;;;;;;;;;;;;;26.16;49.27;99714.88;1083112;54;19963;-78
2022/08/05 05:48:08;;;;;;;;;;;;;;;26.14;49.18;99717.03;1083202;54;19949;-78
2022/08/05 05:49:12;;;;;;;;;;;;;;;26.22;49.02;99719.31;1083572;54;19978;-79
2022/08/05 05:50:16;;;;;;;;;;;;;;;26.27;48.88;99711.13;1083424;54;19953;-78
2022/08/05 05:51:20;;;;;;;;;;;;;;;26.29;48.65;99714.44;1083550;54;19959;-80
2022/08/05 05:52:24;;;;;;;;;;;;;;;26.33;48.51;99708.47;1084626;46;19939;-78
2022/08/05 05:53:29;;;;;;;;;;;;;;;26.29;48.43;99708.97;1083854;54;19946;-79
2022/08/05 05:54:31;;;;;;;;;;;;;;;26.35;48.64;99709.03;1083944;54;20484;-80
2022/08/05 05:55:36;;;;;;;;;;;;;;;26.36;48.41;99707.94;1083319;54;19938;-81
2022/08/05 05:56:40;;;;;;;;;;;;;;;26.39;48.74;99718.38;1083526;47;19946;-79
2022/08/05 05:57:45;;;;;;;;;;;;;;;26.37;48.64;99715.06;1083979;54;19946;-79
2022/08/05 05:58:47;;;;;;;;;;;;;;;26.36;48.84;99724.38;1084155;54;20476;-79
2022/08/05 05:59:50;;;;;;;;;;;;;;;26.39;48.91;99708.28;1084336;54;19961;-81
2022/08/05 06:00:51;;;;;;;;;;;;;;;26.40;48.53;99715.38;1084647;54;19958;-81
2022/08/05 06:01:55;;;;;;;;;;;;;;;26.43;48.60;99716.78;1084535;54;20316;-80
2022/08/05 06:02:56;;;;;;;;;;;;;;;26.51;48.61;99716.34;1084907;54;20089;-79
2022/08/05 06:04:00;;;;;;;;;;;;;;;26.58;48.45;99721.59;1086550;54;19973;-78
2022/08/05 06:05:01;;;;;;;;;;;;;;;26.65;48.44;99721.38;1090276;39;20355;-81
2022/08/05 06:06:05;;;;;;;;;;;;;;;26.63;48.35;99716.16;1085239;54;19958;-79